createdAt,value
2018-03-07T00:00:27.768Z,33.00
2018-03-07T00:02:54.019Z,32.33
2018-03-07T00:05:20.261Z,33.93
2018-03-07T00:07:46.612Z,33.23
2018-03-07T00:10:12.843Z,34.23
2018-03-07T00:12:39.120Z,33.83
2018-03-07T00:15:05.371Z,33.77
2018-03-07T00:17:31.664Z,33.73
2018-03-07T00:19:57.908Z,33.83
2018-03-07T00:22:24.137Z,34.47
2018-03-07T00:24:50.384Z,36.27
2018-03-07T00:27:16.620Z,33.10
2018-03-07T00:29:42.885Z,32.70
2018-03-07T00:32:09.277Z,35.07
2018-03-07T00:34:35.523Z,33.97
2018-03-07T00:37:01.747Z,33.03
2018-03-07T00:39:27.992Z,31.93
2018-03-07T00:41:54.221Z,31.07
2018-03-07T00:44:20.515Z,31.33
2018-03-07T00:46:46.744Z,30.33
2018-03-07T00:49:12.964Z,30.77
2018-03-07T00:51:39.231Z,29.30
2018-03-07T00:54:05.460Z,29.23
2018-03-07T00:56:31.716Z,30.00
2018-03-07T00:58:57.959Z,29.73
2018-03-07T01:01:25.160Z,28.07
2018-03-07T01:03:51.399Z,28.60
2018-03-07T01:06:17.644Z,28.37
2018-03-07T01:08:43.880Z,25.20
2018-03-07T01:11:10.145Z,23.93
2018-03-07T01:13:36.375Z,24.03
2018-03-07T01:16:02.615Z,23.43
2018-03-07T01:18:28.872Z,24.87
2018-03-07T01:20:55.280Z,22.17
2018-03-07T01:23:21.526Z,22.30
2018-03-07T01:25:47.751Z,21.07
2018-03-07T01:28:14.001Z,21.33
2018-03-07T01:30:40.282Z,20.30
2018-03-07T01:33:06.544Z,19.67
2018-03-07T01:35:32.768Z,19.27
2018-03-07T01:37:59.000Z,17.93
2018-03-07T01:40:25.252Z,19.40
2018-03-07T01:42:51.481Z,19.77
2018-03-07T01:45:17.735Z,19.07
2018-03-07T01:47:44.002Z,20.83
2018-03-07T01:50:10.275Z,19.30
2018-03-07T01:52:36.499Z,19.30
2018-03-07T01:55:02.763Z,21.20
2018-03-07T01:57:28.992Z,20.83
2018-03-07T01:59:55.248Z,18.90
2018-03-07T02:02:21.483Z,22.53
2018-03-07T02:04:47.718Z,19.33
2018-03-07T02:07:13.975Z,19.83
2018-03-07T02:09:40.199Z,18.70
2018-03-07T02:12:06.455Z,20.40
2018-03-07T02:14:32.680Z,19.97
2018-03-07T02:16:58.924Z,19.80
2018-03-07T02:19:25.145Z,19.53
2018-03-07T02:21:51.400Z,18.97
2018-03-07T02:24:17.622Z,19.53
2018-03-07T02:26:43.855Z,19.43
2018-03-07T02:29:10.104Z,20.00
2018-03-07T02:31:36.352Z,21.17
2018-03-07T02:34:02.617Z,20.87
2018-03-07T02:36:32.978Z,20.53
2018-03-07T02:38:59.445Z,22.63
2018-03-07T02:41:25.679Z,23.13
2018-03-07T02:43:51.923Z,20.97
2018-03-07T02:46:18.179Z,22.03
2018-03-07T02:48:44.435Z,22.80
2018-03-07T02:51:10.658Z,22.13
2018-03-07T02:53:36.882Z,23.43
2018-03-07T02:56:03.119Z,22.73
2018-03-07T02:58:29.340Z,23.03
2018-03-07T03:00:55.593Z,23.47
2018-03-07T03:03:21.822Z,21.70
2018-03-07T03:05:48.075Z,24.03
2018-03-07T03:08:14.316Z,23.07
2018-03-07T03:10:40.564Z,22.03
2018-03-07T03:13:06.802Z,22.73
2018-03-07T03:15:33.055Z,20.27
2018-03-07T03:17:59.279Z,20.53
2018-03-07T03:20:25.508Z,21.47
2018-03-07T03:22:51.756Z,21.47
2018-03-07T03:25:17.984Z,21.07
2018-03-07T03:27:44.227Z,21.37
2018-03-07T03:30:10.461Z,21.67
2018-03-07T03:32:36.704Z,20.87
2018-03-07T03:35:03.103Z,22.07
2018-03-07T03:37:29.344Z,20.87
2018-03-07T03:39:55.560Z,21.90
2018-03-07T03:42:21.832Z,21.13
2018-03-07T03:44:48.055Z,20.67
2018-03-07T03:47:14.277Z,20.90
2018-03-07T03:49:40.519Z,20.53
2018-03-07T03:52:06.739Z,21.37
2018-03-07T03:54:32.991Z,23.23
2018-03-07T03:56:59.215Z,22.00
2018-03-07T03:59:25.451Z,21.23
2018-03-07T04:01:51.675Z,22.27
2018-03-07T04:04:17.912Z,22.20
2018-03-07T04:06:44.144Z,23.27
2018-03-07T04:09:10.370Z,21.93
2018-03-07T04:11:36.617Z,23.17
2018-03-07T04:14:02.851Z,22.43
2018-03-07T04:16:29.091Z,24.33
2018-03-07T04:18:55.314Z,21.57
2018-03-07T04:21:21.562Z,21.73
2018-03-07T04:23:47.776Z,23.27
2018-03-07T04:26:14.016Z,23.87
2018-03-07T04:28:40.239Z,22.53
2018-03-07T04:31:06.521Z,23.03
2018-03-07T04:33:32.743Z,21.30
2018-03-07T04:35:58.972Z,21.53
2018-03-07T04:38:25.229Z,22.87
2018-03-07T04:40:51.468Z,23.13
2018-03-07T04:43:17.708Z,22.67
2018-03-07T04:45:43.937Z,22.13
2018-03-07T04:48:10.173Z,21.97
2018-03-07T04:50:36.387Z,20.20
2018-03-07T04:53:02.631Z,20.13
2018-03-07T04:55:28.847Z,21.80
2018-03-07T04:57:55.104Z,21.87
2018-03-07T05:00:21.331Z,22.23
2018-03-07T05:02:47.584Z,21.30
2018-03-07T05:05:13.847Z,20.37
2018-03-07T05:07:40.080Z,21.93
2018-03-07T05:10:06.319Z,21.03
2018-03-07T05:12:32.539Z,19.23
2018-03-07T05:14:58.811Z,20.37
2018-03-07T05:17:25.024Z,20.80
2018-03-07T05:19:51.272Z,20.20
2018-03-07T05:22:17.500Z,21.50
2018-03-07T05:24:43.750Z,21.20
2018-03-07T05:27:09.971Z,19.80
2018-03-07T05:29:36.216Z,20.80
2018-03-07T05:32:02.496Z,20.20
2018-03-07T05:34:28.724Z,19.73
2018-03-07T05:36:54.956Z,21.80
2018-03-07T05:39:21.203Z,20.47
2018-03-07T05:41:47.452Z,20.77
2018-03-07T05:44:13.680Z,20.67
2018-03-07T05:46:39.938Z,21.30
2018-03-07T05:49:06.163Z,19.60
2018-03-07T05:51:32.399Z,21.07
2018-03-07T05:53:58.783Z,20.93
2018-03-07T05:56:25.015Z,21.10
2018-03-07T05:58:51.268Z,22.67
2018-03-07T06:01:17.500Z,22.73
2018-03-07T06:03:43.748Z,23.40
2018-03-07T06:06:09.971Z,21.87
2018-03-07T06:08:36.223Z,23.03
2018-03-07T06:11:02.461Z,22.80
2018-03-07T06:13:28.720Z,23.63
2018-03-07T06:15:54.967Z,22.67
2018-03-07T06:18:21.191Z,23.50
2018-03-07T06:20:47.448Z,23.17
2018-03-07T06:23:13.673Z,23.17
2018-03-07T06:25:39.907Z,23.57
2018-03-07T06:28:06.163Z,23.67
2018-03-07T06:30:32.404Z,23.60
2018-03-07T06:32:58.640Z,24.37
2018-03-07T06:35:24.900Z,24.17
2018-03-07T06:37:51.132Z,25.40
2018-03-07T06:40:17.389Z,24.50
2018-03-07T06:42:43.639Z,24.63
2018-03-07T06:45:09.866Z,25.90
2018-03-07T06:47:36.136Z,25.03
2018-03-07T06:50:02.410Z,25.57
2018-03-07T06:52:28.641Z,26.17
2018-03-07T06:54:54.856Z,26.73
2018-03-07T06:57:21.085Z,27.97
2018-03-07T06:59:47.308Z,27.70
2018-03-07T07:02:13.548Z,27.93
2018-03-07T07:04:39.764Z,28.47
2018-03-07T07:07:05.979Z,30.50
2018-03-07T07:09:32.216Z,28.00
2018-03-07T07:11:58.456Z,28.23
2018-03-07T07:14:24.726Z,28.77
2018-03-07T07:16:50.946Z,29.60
2018-03-07T07:19:17.188Z,30.77
2018-03-07T07:21:43.528Z,28.27
2018-03-07T07:24:09.760Z,29.70
2018-03-07T07:26:35.976Z,33.80
2018-03-07T07:29:02.224Z,32.43
2018-03-07T07:31:28.466Z,30.13
2018-03-07T07:33:54.680Z,31.97
2018-03-07T07:36:20.920Z,31.47
2018-03-07T07:38:47.144Z,32.60
2018-03-07T07:41:13.380Z,32.27
2018-03-07T07:43:39.587Z,31.47
2018-03-07T07:46:05.824Z,33.43
2018-03-07T07:48:32.071Z,33.60
2018-03-07T07:50:58.308Z,33.83
2018-03-07T07:53:24.531Z,32.57
2018-03-07T07:55:50.787Z,32.17
2018-03-07T07:58:18.148Z,34.70
2018-03-07T08:00:44.402Z,34.13
2018-03-07T08:03:10.612Z,34.23
2018-03-07T08:05:36.828Z,36.77
2018-03-07T08:08:03.113Z,39.83
2018-03-07T08:10:29.336Z,36.20
2018-03-07T08:12:55.568Z,33.57
2018-03-07T08:15:21.784Z,35.67
2018-03-07T08:17:48.017Z,35.73
2018-03-07T08:20:14.244Z,35.90
2018-03-07T08:22:40.495Z,35.67
2018-03-07T08:25:06.712Z,36.43
2018-03-07T08:27:32.928Z,36.03
2018-03-07T08:29:59.196Z,36.97
2018-03-07T08:32:25.415Z,36.43
2018-03-07T08:34:51.692Z,39.40
2018-03-07T08:37:17.911Z,41.47
2018-03-07T08:39:44.160Z,35.73
2018-03-07T08:42:10.412Z,38.63
2018-03-07T08:44:36.666Z,39.13
2018-03-07T08:47:02.912Z,39.33
2018-03-07T08:49:29.127Z,37.37
2018-03-07T08:51:55.365Z,39.27
2018-03-07T08:54:21.619Z,38.33
2018-03-07T08:56:47.860Z,40.30
2018-03-07T08:59:14.075Z,37.43
2018-03-07T09:01:40.311Z,39.47
2018-03-07T09:04:06.532Z,38.73
2018-03-07T09:06:32.771Z,39.73
2018-03-07T09:08:59.007Z,37.47
2018-03-07T09:11:25.248Z,40.80
2018-03-07T09:13:51.471Z,39.10
2018-03-07T09:16:17.688Z,37.90
2018-03-07T09:18:43.944Z,39.40
2018-03-07T09:21:10.151Z,36.37
2018-03-07T09:23:36.397Z,36.60
2018-03-07T09:26:02.632Z,40.00
2018-03-07T09:28:28.888Z,38.97
2018-03-07T09:30:55.104Z,39.30
2018-03-07T09:33:21.343Z,38.13
2018-03-07T09:35:47.585Z,38.03
2018-03-07T09:38:13.852Z,39.10
2018-03-07T09:40:40.071Z,37.73
2018-03-07T09:43:06.313Z,38.23
2018-03-07T09:45:32.557Z,37.67
2018-03-07T09:47:58.776Z,38.13
2018-03-07T09:50:25.027Z,40.50
2018-03-07T09:52:51.236Z,38.53
2018-03-07T09:55:17.487Z,39.23
2018-03-07T09:57:43.712Z,41.40
2018-03-07T10:00:09.945Z,40.00
2018-03-07T10:02:36.156Z,39.83
2018-03-07T10:05:02.452Z,39.03
2018-03-07T10:07:28.672Z,39.83
2018-03-07T10:09:54.885Z,40.67
2018-03-07T10:12:21.133Z,39.93
2018-03-07T10:14:47.375Z,39.90
2018-03-07T10:17:13.621Z,39.77
2018-03-07T10:19:39.847Z,40.53
2018-03-07T10:22:06.194Z,38.63
2018-03-07T10:24:32.413Z,41.40
2018-03-07T10:26:58.668Z,39.90
2018-03-07T10:29:24.899Z,38.87
2018-03-07T10:31:51.124Z,40.23
2018-03-07T10:34:17.412Z,40.53
2018-03-07T10:36:43.631Z,41.07
2018-03-07T10:39:09.890Z,44.00
2018-03-07T10:41:36.118Z,41.63
2018-03-07T10:44:02.374Z,40.60
2018-03-07T10:46:28.592Z,40.77
2018-03-07T10:48:54.836Z,39.43
2018-03-07T10:51:21.057Z,39.93
2018-03-07T10:53:47.319Z,42.03
2018-03-07T10:56:13.546Z,38.83
2018-03-07T10:58:39.766Z,40.10
2018-03-07T11:01:06.020Z,40.30
2018-03-07T11:03:32.250Z,38.60
2018-03-07T11:05:58.484Z,38.20
2018-03-07T11:08:24.712Z,37.37
2018-03-07T11:10:50.972Z,40.13
2018-03-07T11:13:17.193Z,37.27
2018-03-07T11:15:43.438Z,34.33
2018-03-07T11:18:09.700Z,34.30
2018-03-07T11:20:35.976Z,31.83
2018-03-07T11:23:02.184Z,33.57
2018-03-07T11:25:28.438Z,30.43
2018-03-07T11:27:54.668Z,29.83
2018-03-07T11:30:20.888Z,26.00
2018-03-07T11:32:47.129Z,25.57
2018-03-07T11:35:13.363Z,27.97
2018-03-07T11:37:39.605Z,26.00
2018-03-07T11:40:05.828Z,24.73
2018-03-07T11:42:32.093Z,23.23
2018-03-07T11:44:58.358Z,22.93
2018-03-07T11:47:24.548Z,20.60
2018-03-07T11:49:50.784Z,19.70
2018-03-07T11:52:17.001Z,18.93
2018-03-07T11:54:43.243Z,20.63
2018-03-07T11:57:09.465Z,17.20
2018-03-07T11:59:35.708Z,19.27
2018-03-07T12:02:01.936Z,16.73
2018-03-07T12:04:28.178Z,18.13
2018-03-07T12:06:54.404Z,17.57
2018-03-07T12:09:20.685Z,17.07
2018-03-07T12:11:46.917Z,17.03
2018-03-07T12:14:13.174Z,17.33
2018-03-07T12:16:39.401Z,15.87
2018-03-07T12:19:05.619Z,16.20
2018-03-07T12:21:31.849Z,17.67
2018-03-07T12:23:58.136Z,17.37
2018-03-07T12:26:24.389Z,17.40
2018-03-07T12:28:50.611Z,18.03
2018-03-07T12:31:16.853Z,17.17
2018-03-07T12:33:43.076Z,16.80
2018-03-07T12:36:09.332Z,17.27
2018-03-07T12:38:35.549Z,17.93
2018-03-07T12:41:01.772Z,15.43
2018-03-07T12:43:28.010Z,16.80
2018-03-07T12:45:54.248Z,16.83
2018-03-07T12:48:20.492Z,16.30
2018-03-07T12:50:46.704Z,17.07
2018-03-07T12:53:12.939Z,15.77
2018-03-07T12:55:39.154Z,16.27
2018-03-07T12:58:05.408Z,15.63
2018-03-07T13:00:31.656Z,15.90
2018-03-07T13:02:57.880Z,16.13
2018-03-07T13:05:24.124Z,15.23
2018-03-07T13:07:50.341Z,16.77
2018-03-07T13:10:16.584Z,16.47
2018-03-07T13:12:42.805Z,16.20
2018-03-07T13:15:09.040Z,15.90
2018-03-07T13:17:35.261Z,14.93
2018-03-07T13:20:01.513Z,16.17
2018-03-07T13:22:27.772Z,15.47
2018-03-07T13:24:54.027Z,16.10
2018-03-07T13:27:20.256Z,15.73
2018-03-07T13:29:46.490Z,16.23
2018-03-07T13:32:12.740Z,16.30
2018-03-07T13:34:38.979Z,16.67
2018-03-07T13:37:05.219Z,17.13
2018-03-07T13:39:31.460Z,17.63
2018-03-07T13:41:57.714Z,16.83
2018-03-07T13:44:23.948Z,18.30
2018-03-07T13:46:50.213Z,18.20
2018-03-07T13:49:16.439Z,17.63
2018-03-07T13:51:42.668Z,18.93
2018-03-07T13:54:08.921Z,16.93
2018-03-07T13:56:35.132Z,20.30
2018-03-07T13:59:01.396Z,18.63
2018-03-07T14:01:27.628Z,18.37
2018-03-07T14:03:53.867Z,17.90
2018-03-07T14:06:20.084Z,17.00
2018-03-07T14:08:46.329Z,18.00
2018-03-07T14:11:12.552Z,18.47
2018-03-07T14:13:38.819Z,19.17
2018-03-07T14:16:05.073Z,18.20
2018-03-07T14:18:31.328Z,17.17
2018-03-07T14:20:57.609Z,18.10
2018-03-07T14:23:23.855Z,17.27
2018-03-07T14:25:50.116Z,17.33
2018-03-07T14:28:16.360Z,17.13
2018-03-07T14:30:42.604Z,17.40
2018-03-07T14:33:08.839Z,17.37
2018-03-07T14:35:35.088Z,17.67
2018-03-07T14:38:02.568Z,17.47
2018-03-07T14:40:28.828Z,16.23
2018-03-07T14:42:55.052Z,16.10
2018-03-07T14:45:21.272Z,15.87
2018-03-07T14:47:47.519Z,16.00
2018-03-07T14:50:13.740Z,15.10
2018-03-07T14:52:39.991Z,15.37
2018-03-07T14:55:06.261Z,14.90
2018-03-07T14:57:32.475Z,14.60
2018-03-07T14:59:58.708Z,13.80
2018-03-07T15:02:24.957Z,14.03
2018-03-07T15:04:51.176Z,14.03
2018-03-07T15:07:17.400Z,14.27
2018-03-07T15:09:43.649Z,12.70
2018-03-07T15:12:09.888Z,12.50
2018-03-07T15:14:36.136Z,11.83
2018-03-07T15:17:02.352Z,11.73
2018-03-07T15:19:28.601Z,11.43
2018-03-07T15:21:54.815Z,11.80
2018-03-07T15:24:21.065Z,11.83
2018-03-07T15:26:47.292Z,11.27
2018-03-07T15:29:13.555Z,9.73
2018-03-07T15:31:39.785Z,10.27
2018-03-07T15:34:06.013Z,10.13
2018-03-07T15:36:32.264Z,11.47
2018-03-07T15:38:58.523Z,10.30
2018-03-07T15:41:24.769Z,10.43
2018-03-07T15:43:50.998Z,9.57
2018-03-07T15:46:17.231Z,9.30
2018-03-07T15:48:43.452Z,8.80
2018-03-07T15:51:09.709Z,9.37
2018-03-07T15:53:35.932Z,8.37
2018-03-07T15:56:02.184Z,8.70
2018-03-07T15:58:28.445Z,7.60
2018-03-07T16:00:54.687Z,7.97
2018-03-07T16:03:20.937Z,7.87
2018-03-07T16:05:47.164Z,8.13
2018-03-07T16:08:13.399Z,7.33
2018-03-07T16:10:39.621Z,7.73
2018-03-07T16:13:05.880Z,7.30
2018-03-07T16:15:32.124Z,6.87
2018-03-07T16:17:58.352Z,7.03
2018-03-07T16:20:24.644Z,6.60
2018-03-07T16:22:50.835Z,7.33
2018-03-07T16:25:17.076Z,6.53
2018-03-07T16:27:43.312Z,6.80
2018-03-07T16:30:09.552Z,6.97
2018-03-07T16:32:35.788Z,6.40
2018-03-07T16:35:02.041Z,7.40
2018-03-07T16:37:28.260Z,7.37
2018-03-07T16:39:54.490Z,6.47
2018-03-07T16:42:20.736Z,5.67
2018-03-07T16:44:47.012Z,6.47
2018-03-07T16:47:13.253Z,6.80
2018-03-07T16:49:39.512Z,6.27
2018-03-07T16:52:05.777Z,6.07
2018-03-07T16:54:32.003Z,6.77
2018-03-07T16:56:58.254Z,6.67
2018-03-07T16:59:24.512Z,6.13
2018-03-07T17:01:50.759Z,5.77
2018-03-07T17:04:17.025Z,5.80
2018-03-07T17:06:43.237Z,6.23
2018-03-07T17:09:09.581Z,6.53
2018-03-07T17:11:36.165Z,5.80
2018-03-07T17:14:02.582Z,7.47
2018-03-07T17:16:28.866Z,7.20
2018-03-07T17:18:55.136Z,6.60
2018-03-07T17:21:21.356Z,7.13
2018-03-07T17:23:48.635Z,6.50
2018-03-07T17:26:14.888Z,6.23
2018-03-07T17:28:41.156Z,6.87
2018-03-07T17:31:07.360Z,7.07
2018-03-07T17:33:33.591Z,6.67
2018-03-07T17:35:59.840Z,6.80
2018-03-07T17:38:26.076Z,6.47
2018-03-07T17:40:52.325Z,6.93
2018-03-07T17:43:18.560Z,6.30
2018-03-07T17:45:44.808Z,6.97
2018-03-07T17:48:11.056Z,6.90
2018-03-07T17:50:37.283Z,7.20
2018-03-07T17:53:03.524Z,7.03
2018-03-07T17:55:29.787Z,6.80
2018-03-07T17:57:56.036Z,6.63
2018-03-07T18:00:22.256Z,6.93
2018-03-07T18:02:48.519Z,6.90
2018-03-07T18:05:14.767Z,6.60
2018-03-07T18:07:41.046Z,6.73
2018-03-07T18:10:07.304Z,7.83
2018-03-07T18:12:33.532Z,54.80
2018-03-07T18:14:59.775Z,7.87
2018-03-07T18:17:25.992Z,7.27
2018-03-07T18:19:52.240Z,6.43
2018-03-07T18:22:18.489Z,7.33
2018-03-07T18:24:44.741Z,7.27
2018-03-07T18:27:10.972Z,6.67
2018-03-07T18:29:37.216Z,7.37
2018-03-07T18:32:03.445Z,7.00
2018-03-07T18:34:29.733Z,7.27
2018-03-07T18:36:55.948Z,6.63
2018-03-07T18:39:22.190Z,6.87
2018-03-07T18:41:48.432Z,6.27
2018-03-07T18:44:14.796Z,6.57
2018-03-07T18:46:41.040Z,6.33
2018-03-07T18:49:07.430Z,6.30
2018-03-07T18:51:33.708Z,6.50
2018-03-07T18:53:59.941Z,6.30
2018-03-07T18:56:26.155Z,6.23
2018-03-07T18:58:52.616Z,5.83
2018-03-07T19:01:18.838Z,5.30
2018-03-07T19:03:45.076Z,5.83
2018-03-07T19:06:11.374Z,5.00
2018-03-07T19:08:37.646Z,5.30
2018-03-07T19:11:03.900Z,4.90
2018-03-07T19:13:30.153Z,5.27
2018-03-07T19:15:56.381Z,5.23
2018-03-07T19:18:22.646Z,4.83
2018-03-07T19:20:48.884Z,4.20
2018-03-07T19:23:15.107Z,3.60
2018-03-07T19:25:41.358Z,3.93
2018-03-07T19:28:07.603Z,3.23
2018-03-07T19:30:33.844Z,3.83
2018-03-07T19:33:00.081Z,14.60
2018-03-07T19:35:26.337Z,3.77
2018-03-07T19:37:52.567Z,4.17
2018-03-07T19:40:18.828Z,4.20
2018-03-07T19:42:45.065Z,3.63
2018-03-07T19:45:11.357Z,3.50
2018-03-07T19:47:37.603Z,3.67
2018-03-07T19:50:03.881Z,3.60
2018-03-07T19:52:30.116Z,3.33
2018-03-07T19:54:56.336Z,4.00
2018-03-07T19:57:22.669Z,3.53
2018-03-07T19:59:48.930Z,3.80
2018-03-07T20:02:15.161Z,3.70
2018-03-07T20:04:41.427Z,3.67
2018-03-07T20:07:07.675Z,3.70
2018-03-07T20:09:33.925Z,3.40
2018-03-07T20:12:00.151Z,3.27
2018-03-07T20:14:26.400Z,3.60
2018-03-07T20:16:52.623Z,3.43
2018-03-07T20:19:18.884Z,3.07
2018-03-07T20:21:45.112Z,3.33
2018-03-07T20:24:11.349Z,3.50
2018-03-07T20:26:40.883Z,3.23
2018-03-07T20:29:07.380Z,2.83
2018-03-07T20:31:46.145Z,3.70
2018-03-07T20:34:12.470Z,3.50
2018-03-07T20:36:38.872Z,3.63
2018-03-07T20:39:05.140Z,3.60
2018-03-07T20:41:31.743Z,3.60
2018-03-07T20:43:58.025Z,3.13
2018-03-07T20:46:24.536Z,3.40
2018-03-07T20:48:50.843Z,3.73
2018-03-07T20:51:17.072Z,3.20
2018-03-07T20:53:43.369Z,3.07
2018-03-07T20:56:09.834Z,3.00
2018-03-07T20:58:36.200Z,3.10
2018-03-07T21:01:02.476Z,3.00
2018-03-07T21:03:29.060Z,2.80
2018-03-07T21:05:55.348Z,2.90
2018-03-07T21:08:21.844Z,2.80
2018-03-07T21:10:48.190Z,2.80
2018-03-07T21:13:14.431Z,2.67
2018-03-07T21:15:40.834Z,2.90
2018-03-07T21:18:07.096Z,2.70
2018-03-07T21:20:33.598Z,2.90
2018-03-07T21:22:59.843Z,2.83
2018-03-07T21:25:26.333Z,2.50
2018-03-07T21:27:52.662Z,2.57
2018-03-07T21:30:19.033Z,2.70
2018-03-07T21:32:45.446Z,2.80
2018-03-07T21:35:11.704Z,2.70
2018-03-07T21:37:38.022Z,2.80
2018-03-07T21:40:04.243Z,2.57
2018-03-07T21:42:30.711Z,2.40
2018-03-07T21:44:56.974Z,2.43
2018-03-07T21:47:23.557Z,2.73
2018-03-07T21:49:49.897Z,2.53
2018-03-07T21:52:16.247Z,2.80
2018-03-07T21:54:42.517Z,2.93
2018-03-07T21:57:08.752Z,2.53
2018-03-07T21:59:35.105Z,2.30
2018-03-07T22:02:01.534Z,2.07
2018-03-07T22:04:27.777Z,1.83
2018-03-07T22:06:54.173Z,2.30
2018-03-07T22:09:20.435Z,1.93
2018-03-07T22:11:46.923Z,1.80
2018-03-07T22:14:13.153Z,1.97
2018-03-07T22:16:39.591Z,2.10
2018-03-07T22:19:05.838Z,2.00
2018-03-07T22:21:32.392Z,2.00
2018-03-07T22:23:58.703Z,1.90
2018-03-07T22:26:24.986Z,1.93
2018-03-07T22:28:51.535Z,2.40
2018-03-07T22:31:17.775Z,1.73
2018-03-07T22:33:44.151Z,2.10
2018-03-07T22:36:10.432Z,1.77
2018-03-07T22:38:36.916Z,1.87
2018-03-07T22:41:03.324Z,1.90
2018-03-07T22:43:29.668Z,2.30
2018-03-07T22:45:56.203Z,1.90
2018-03-07T22:48:22.443Z,1.80
2018-03-07T22:50:48.929Z,2.00
2018-03-07T22:53:15.285Z,2.10
2018-03-07T22:55:41.526Z,2.03
2018-03-07T22:58:08.001Z,1.90
2018-03-07T23:00:40.224Z,2.30
2018-03-07T23:03:06.889Z,1.90
2018-03-07T23:05:33.341Z,2.20
2018-03-07T23:07:59.653Z,1.97
2018-03-07T23:10:26.237Z,2.60
2018-03-07T23:12:52.464Z,2.17
2018-03-07T23:15:19.016Z,2.10
2018-03-07T23:17:45.346Z,2.17
2018-03-07T23:20:11.648Z,2.10
2018-03-07T23:22:37.981Z,1.97
2018-03-07T23:25:04.296Z,2.23
2018-03-07T23:27:30.744Z,2.13
2018-03-07T23:29:56.981Z,2.10
2018-03-07T23:32:23.519Z,2.10
2018-03-07T23:34:49.755Z,2.07
2018-03-07T23:37:16.276Z,2.33
2018-03-07T23:39:42.573Z,2.00
2018-03-07T23:42:09.457Z,2.27
2018-03-07T23:44:36.693Z,2.13
2018-03-07T23:47:03.379Z,2.07
2018-03-07T23:49:29.973Z,2.40
2018-03-07T23:51:56.267Z,2.40
2018-03-07T23:54:22.705Z,2.00
2018-03-07T23:56:49.080Z,2.53
2018-03-07T23:59:15.730Z,2.20
